sensor_id;sensor_type;location;lat;lon;timestamp;P1;durP1;ratioP1;P2;durP2;ratioP2
6356;SDS011;3211;53.452;-2.264;2022-11-13T00:01:09;12.70;;;8.90;;
6356;SDS011;3211;53.452;-2.264;2022-11-13T00:03:37;11.20;;;8.40;;
6356;SDS011;3211;53.452;-2.264;2022-11-13T00:06:05;14.90;;;7.80;;
6356;SDS011;3211;53.452;-2.264;2022-11-13T00:08:32;8.80;;;7.90;;
6356;SDS011;3211;53.452;-2.264;2022-11-13T00:11:01;11.67;;;7.97;;
6356;SDS011;3211;53.452;-2.264;2022-11-13T00:13:29;11.23;;;8.57;;
6356;SDS011;3211;53.452;-2.264;2022-11-13T00:15:57;10.30;;;7.73;;
6356;SDS011;3211;53.452;-2.264;2022-11-13T00:18:25;12.60;;;8.93;;
6356;SDS011;3211;53.452;-2.264;2022-11-13T00:20:53;10.70;;;8.03;;
6356;SDS011;3211;53.452;-2.264;2022-11-13T00:23:21;14.40;;;9.03;;
6356;SDS011;3211;53.452;-2.264;2022-11-13T00:25:47;13.43;;;8.20;;
6356;SDS011;3211;53.452;-2.264;2022-11-13T00:28:16;11.87;;;7.90;;
6356;SDS011;3211;53.452;-2.264;2022-11-13T00:30:43;9.50;;;8.20;;
6356;SDS011;3211;53.452;-2.264;2022-11-13T00:33:10;16.43;;;8.70;;
6356;SDS011;3211;53.452;-2.264;2022-11-13T00:35:37;10.37;;;8.67;;
6356;SDS011;3211;53.452;-2.264;2022-11-13T00:38:04;11.80;;;8.10;;
6356;SDS011;3211;53.452;-2.264;2022-11-13T00:40:31;14.07;;;7.90;;
6356;SDS011;3211;53.452;-2.264;2022-11-13T00:42:58;16.73;;;9.70;;
6356;SDS011;3211;53.452;-2.264;2022-11-13T00:45:26;16.13;;;9.50;;
6356;SDS011;3211;53.452;-2.264;2022-11-13T00:47:53;24.67;;;14.30;;
6356;SDS011;3211;53.452;-2.264;2022-11-13T00:50:20;23.07;;;10.97;;
6356;SDS011;3211;53.452;-2.264;2022-11-13T00:52:47;14.80;;;10.37;;
6356;SDS011;3211;53.452;-2.264;2022-11-13T00:55:14;14.90;;;10.80;;
6356;SDS011;3211;53.452;-2.264;2022-11-13T00:57:41;17.00;;;10.73;;
6356;SDS011;3211;53.452;-2.264;2022-11-13T01:00:08;10.50;;;8.90;;
6356;SDS011;3211;53.452;-2.264;2022-11-13T01:02:37;13.47;;;9.57;;
6356;SDS011;3211;53.452;-2.264;2022-11-13T01:05:04;12.40;;;8.80;;
6356;SDS011;3211;53.452;-2.264;2022-11-13T01:07:34;13.00;;;9.50;;
6356;SDS011;3211;53.452;-2.264;2022-11-13T01:10:02;15.40;;;9.60;;
6356;SDS011;3211;53.452;-2.264;2022-11-13T01:12:29;14.07;;;9.87;;
6356;SDS011;3211;53.452;-2.264;2022-11-13T01:14:56;13.90;;;9.83;;
6356;SDS011;3211;53.452;-2.264;2022-11-13T01:17:23;13.13;;;9.40;;
6356;SDS011;3211;53.452;-2.264;2022-11-13T01:19:52;12.20;;;9.00;;
6356;SDS011;3211;53.452;-2.264;2022-11-13T01:22:19;14.30;;;9.23;;
6356;SDS011;3211;53.452;-2.264;2022-11-13T01:24:46;13.90;;;8.97;;
6356;SDS011;3211;53.452;-2.264;2022-11-13T01:27:13;12.30;;;9.40;;
6356;SDS011;3211;53.452;-2.264;2022-11-13T01:29:40;14.40;;;9.50;;
6356;SDS011;3211;53.452;-2.264;2022-11-13T01:32:07;15.93;;;9.40;;
6356;SDS011;3211;53.452;-2.264;2022-11-13T01:34:34;13.67;;;9.40;;
6356;SDS011;3211;53.452;-2.264;2022-11-13T01:37:03;12.43;;;9.43;;
6356;SDS011;3211;53.452;-2.264;2022-11-13T01:39:30;15.23;;;9.27;;
6356;SDS011;3211;53.452;-2.264;2022-11-13T01:41:57;14.57;;;9.87;;
6356;SDS011;3211;53.452;-2.264;2022-11-13T01:44:24;11.03;;;8.50;;
6356;SDS011;3211;53.452;-2.264;2022-11-13T01:46:56;10.07;;;8.07;;
6356;SDS011;3211;53.452;-2.264;2022-11-13T01:49:24;16.03;;;9.40;;
6356;SDS011;3211;53.452;-2.264;2022-11-13T01:51:56;9.33;;;7.80;;
6356;SDS011;3211;53.452;-2.264;2022-11-13T01:54:28;15.63;;;9.80;;
6356;SDS011;3211;53.452;-2.264;2022-11-13T01:56:57;14.30;;;9.17;;
6356;SDS011;3211;53.452;-2.264;2022-11-13T01:59:26;13.30;;;9.10;;
6356;SDS011;3211;53.452;-2.264;2022-11-13T02:01:57;10.90;;;8.13;;
6356;SDS011;3211;53.452;-2.264;2022-11-13T02:04:24;12.63;;;8.90;;
6356;SDS011;3211;53.452;-2.264;2022-11-13T02:06:54;10.60;;;8.80;;
6356;SDS011;3211;53.452;-2.264;2022-11-13T02:09:24;10.97;;;9.33;;
6356;SDS011;3211;53.452;-2.264;2022-11-13T02:11:55;13.57;;;8.80;;
6356;SDS011;3211;53.452;-2.264;2022-11-13T02:14:23;11.90;;;9.70;;
6356;SDS011;3211;53.452;-2.264;2022-11-13T02:16:54;12.63;;;8.67;;
6356;SDS011;3211;53.452;-2.264;2022-11-13T02:19:25;9.90;;;8.87;;
6356;SDS011;3211;53.452;-2.264;2022-11-13T02:21:57;12.50;;;9.10;;
6356;SDS011;3211;53.452;-2.264;2022-11-13T02:24:31;12.00;;;8.63;;
6356;SDS011;3211;53.452;-2.264;2022-11-13T02:27:02;11.47;;;8.63;;
6356;SDS011;3211;53.452;-2.264;2022-11-13T02:29:31;11.27;;;8.80;;
6356;SDS011;3211;53.452;-2.264;2022-11-13T02:31:58;10.90;;;9.40;;
6356;SDS011;3211;53.452;-2.264;2022-11-13T02:34:25;13.77;;;9.30;;
6356;SDS011;3211;53.452;-2.264;2022-11-13T02:36:52;14.63;;;9.20;;
6356;SDS011;3211;53.452;-2.264;2022-11-13T02:39:19;13.80;;;9.77;;
6356;SDS011;3211;53.452;-2.264;2022-11-13T02:41:47;10.50;;;9.37;;
6356;SDS011;3211;53.452;-2.264;2022-11-13T02:44:14;15.47;;;9.37;;
6356;SDS011;3211;53.452;-2.264;2022-11-13T02:46:41;12.40;;;9.13;;
6356;SDS011;3211;53.452;-2.264;2022-11-13T02:49:08;14.13;;;9.43;;
6356;SDS011;3211;53.452;-2.264;2022-11-13T02:51:35;14.47;;;10.03;;
6356;SDS011;3211;53.452;-2.264;2022-11-13T02:54:02;11.90;;;8.57;;
6356;SDS011;3211;53.452;-2.264;2022-11-13T02:56:29;13.17;;;10.03;;
6356;SDS011;3211;53.452;-2.264;2022-11-13T02:58:58;13.40;;;9.80;;
6356;SDS011;3211;53.452;-2.264;2022-11-13T03:01:25;12.80;;;9.00;;
6356;SDS011;3211;53.452;-2.264;2022-11-13T03:03:51;11.50;;;10.30;;
6356;SDS011;3211;53.452;-2.264;2022-11-13T03:06:19;14.43;;;9.90;;
6356;SDS011;3211;53.452;-2.264;2022-11-13T03:08:46;12.60;;;9.30;;
6356;SDS011;3211;53.452;-2.264;2022-11-13T03:11:12;13.37;;;8.90;;
6356;SDS011;3211;53.452;-2.264;2022-11-13T03:13:39;13.97;;;10.10;;
6356;SDS011;3211;53.452;-2.264;2022-11-13T03:16:09;11.20;;;9.33;;
6356;SDS011;3211;53.452;-2.264;2022-11-13T03:18:37;13.70;;;9.60;;
6356;SDS011;3211;53.452;-2.264;2022-11-13T03:21:05;11.43;;;8.97;;
6356;SDS011;3211;53.452;-2.264;2022-11-13T03:23:34;12.03;;;9.43;;
6356;SDS011;3211;53.452;-2.264;2022-11-13T03:26:02;13.10;;;9.63;;
6356;SDS011;3211;53.452;-2.264;2022-11-13T03:28:30;16.97;;;10.00;;
6356;SDS011;3211;53.452;-2.264;2022-11-13T03:30:57;13.90;;;9.20;;
6356;SDS011;3211;53.452;-2.264;2022-11-13T03:33:26;11.57;;;9.10;;
6356;SDS011;3211;53.452;-2.264;2022-11-13T03:35:52;13.63;;;9.10;;
6356;SDS011;3211;53.452;-2.264;2022-11-13T03:38:20;17.67;;;9.90;;
6356;SDS011;3211;53.452;-2.264;2022-11-13T03:40:47;13.90;;;8.80;;
6356;SDS011;3211;53.452;-2.264;2022-11-13T03:43:15;11.77;;;9.00;;
6356;SDS011;3211;53.452;-2.264;2022-11-13T03:45:43;11.13;;;8.90;;
6356;SDS011;3211;53.452;-2.264;2022-11-13T03:48:11;14.17;;;10.67;;
6356;SDS011;3211;53.452;-2.264;2022-11-13T03:50:41;14.60;;;11.97;;
6356;SDS011;3211;53.452;-2.264;2022-11-13T03:53:08;15.73;;;11.23;;
6356;SDS011;3211;53.452;-2.264;2022-11-13T03:55:36;15.70;;;11.27;;
6356;SDS011;3211;53.452;-2.264;2022-11-13T03:58:03;16.40;;;11.63;;
6356;SDS011;3211;53.452;-2.264;2022-11-13T04:00:30;21.23;;;12.70;;
6356;SDS011;3211;53.452;-2.264;2022-11-13T04:02:58;16.33;;;11.00;;
6356;SDS011;3211;53.452;-2.264;2022-11-13T04:05:25;16.00;;;11.70;;
6356;SDS011;3211;53.452;-2.264;2022-11-13T04:07:54;13.53;;;11.33;;
6356;SDS011;3211;53.452;-2.264;2022-11-13T04:10:21;15.07;;;11.30;;
6356;SDS011;3211;53.452;-2.264;2022-11-13T04:12:48;13.47;;;11.17;;
6356;SDS011;3211;53.452;-2.264;2022-11-13T04:15:15;14.57;;;11.40;;
6356;SDS011;3211;53.452;-2.264;2022-11-13T04:17:42;14.33;;;11.00;;
6356;SDS011;3211;53.452;-2.264;2022-11-13T04:20:09;17.20;;;11.73;;
6356;SDS011;3211;53.452;-2.264;2022-11-13T04:22:37;15.20;;;10.53;;
6356;SDS011;3211;53.452;-2.264;2022-11-13T04:25:06;15.63;;;11.67;;
6356;SDS011;3211;53.452;-2.264;2022-11-13T04:27:33;14.53;;;11.10;;
6356;SDS011;3211;53.452;-2.264;2022-11-13T04:30:00;13.03;;;11.20;;
6356;SDS011;3211;53.452;-2.264;2022-11-13T04:32:28;16.77;;;11.40;;
6356;SDS011;3211;53.452;-2.264;2022-11-13T04:34:55;18.40;;;10.87;;
6356;SDS011;3211;53.452;-2.264;2022-11-13T04:37:22;13.97;;;10.83;;
6356;SDS011;3211;53.452;-2.264;2022-11-13T04:39:49;15.67;;;10.50;;
6356;SDS011;3211;53.452;-2.264;2022-11-13T04:42:17;12.50;;;10.50;;
6356;SDS011;3211;53.452;-2.264;2022-11-13T04:45:02;12.97;;;10.80;;
6356;SDS011;3211;53.452;-2.264;2022-11-13T04:47:29;13.77;;;11.17;;
6356;SDS011;3211;53.452;-2.264;2022-11-13T04:49:56;13.80;;;10.30;;
6356;SDS011;3211;53.452;-2.264;2022-11-13T04:52:23;17.70;;;10.40;;
6356;SDS011;3211;53.452;-2.264;2022-11-13T04:54:50;12.17;;;9.90;;
6356;SDS011;3211;53.452;-2.264;2022-11-13T04:57:18;15.60;;;11.27;;
6356;SDS011;3211;53.452;-2.264;2022-11-13T04:59:45;14.13;;;11.03;;
6356;SDS011;3211;53.452;-2.264;2022-11-13T05:02:12;12.90;;;10.20;;
6356;SDS011;3211;53.452;-2.264;2022-11-13T05:04:39;13.97;;;10.63;;
6356;SDS011;3211;53.452;-2.264;2022-11-13T05:07:06;13.43;;;9.90;;
6356;SDS011;3211;53.452;-2.264;2022-11-13T05:09:33;13.57;;;10.43;;
6356;SDS011;3211;53.452;-2.264;2022-11-13T05:12:00;15.30;;;10.30;;
6356;SDS011;3211;53.452;-2.264;2022-11-13T05:14:30;13.40;;;8.90;;
6356;SDS011;3211;53.452;-2.264;2022-11-13T05:16:57;13.07;;;10.80;;
6356;SDS011;3211;53.452;-2.264;2022-11-13T05:19:25;15.87;;;10.77;;
6356;SDS011;3211;53.452;-2.264;2022-11-13T05:21:52;13.67;;;10.50;;
6356;SDS011;3211;53.452;-2.264;2022-11-13T05:24:19;21.20;;;13.47;;
6356;SDS011;3211;53.452;-2.264;2022-11-13T05:26:46;15.10;;;11.20;;
6356;SDS011;3211;53.452;-2.264;2022-11-13T05:29:13;16.73;;;11.60;;
6356;SDS011;3211;53.452;-2.264;2022-11-13T05:31:41;18.80;;;12.63;;
6356;SDS011;3211;53.452;-2.264;2022-11-13T05:34:08;15.10;;;11.60;;
6356;SDS011;3211;53.452;-2.264;2022-11-13T05:36:35;15.50;;;11.60;;
6356;SDS011;3211;53.452;-2.264;2022-11-13T05:39:02;18.30;;;12.50;;
6356;SDS011;3211;53.452;-2.264;2022-11-13T05:41:30;14.17;;;11.47;;
6356;SDS011;3211;53.452;-2.264;2022-11-13T05:43:57;19.27;;;11.40;;
6356;SDS011;3211;53.452;-2.264;2022-11-13T05:46:25;14.90;;;11.57;;
6356;SDS011;3211;53.452;-2.264;2022-11-13T05:48:55;14.67;;;11.73;;
6356;SDS011;3211;53.452;-2.264;2022-11-13T05:51:23;14.70;;;11.37;;
6356;SDS011;3211;53.452;-2.264;2022-11-13T05:53:51;14.53;;;12.23;;
6356;SDS011;3211;53.452;-2.264;2022-11-13T05:56:20;20.17;;;11.83;;
6356;SDS011;3211;53.452;-2.264;2022-11-13T05:58:49;16.87;;;12.27;;
6356;SDS011;3211;53.452;-2.264;2022-11-13T06:01:18;16.40;;;11.27;;
6356;SDS011;3211;53.452;-2.264;2022-11-13T06:03:46;14.53;;;11.73;;
6356;SDS011;3211;53.452;-2.264;2022-11-13T06:06:16;15.73;;;11.20;;
6356;SDS011;3211;53.452;-2.264;2022-11-13T06:08:44;13.87;;;11.37;;
6356;SDS011;3211;53.452;-2.264;2022-11-13T06:11:13;14.40;;;11.37;;
6356;SDS011;3211;53.452;-2.264;2022-11-13T06:13:42;14.57;;;11.47;;
6356;SDS011;3211;53.452;-2.264;2022-11-13T06:16:10;14.73;;;11.17;;
6356;SDS011;3211;53.452;-2.264;2022-11-13T06:18:39;12.80;;;11.17;;
6356;SDS011;3211;53.452;-2.264;2022-11-13T06:21:08;16.40;;;11.90;;
6356;SDS011;3211;53.452;-2.264;2022-11-13T06:23:37;12.40;;;10.77;;
6356;SDS011;3211;53.452;-2.264;2022-11-13T06:26:06;15.80;;;11.80;;
6356;SDS011;3211;53.452;-2.264;2022-11-13T06:28:34;14.50;;;10.87;;
6356;SDS011;3211;53.452;-2.264;2022-11-13T06:31:02;13.80;;;10.40;;
6356;SDS011;3211;53.452;-2.264;2022-11-13T06:33:30;13.13;;;11.10;;
6356;SDS011;3211;53.452;-2.264;2022-11-13T06:35:59;15.23;;;10.73;;
6356;SDS011;3211;53.452;-2.264;2022-11-13T06:38:28;15.00;;;11.93;;
6356;SDS011;3211;53.452;-2.264;2022-11-13T06:40:58;14.53;;;11.97;;
6356;SDS011;3211;53.452;-2.264;2022-11-13T06:43:25;14.00;;;10.50;;
6356;SDS011;3211;53.452;-2.264;2022-11-13T06:45:52;15.37;;;11.60;;
6356;SDS011;3211;53.452;-2.264;2022-11-13T06:48:20;16.83;;;11.07;;
6356;SDS011;3211;53.452;-2.264;2022-11-13T06:50:47;17.47;;;11.10;;
6356;SDS011;3211;53.452;-2.264;2022-11-13T06:53:14;12.40;;;10.40;;
6356;SDS011;3211;53.452;-2.264;2022-11-13T06:55:43;15.40;;;11.57;;
6356;SDS011;3211;53.452;-2.264;2022-11-13T06:58:12;16.37;;;12.57;;
6356;SDS011;3211;53.452;-2.264;2022-11-13T07:00:39;15.80;;;11.07;;
6356;SDS011;3211;53.452;-2.264;2022-11-13T07:03:11;17.43;;;11.17;;
6356;SDS011;3211;53.452;-2.264;2022-11-13T07:05:41;16.93;;;11.70;;
6356;SDS011;3211;53.452;-2.264;2022-11-13T07:08:08;15.43;;;12.13;;
6356;SDS011;3211;53.452;-2.264;2022-11-13T07:10:35;18.10;;;11.63;;
6356;SDS011;3211;53.452;-2.264;2022-11-13T07:13:02;21.03;;;12.67;;
6356;SDS011;3211;53.452;-2.264;2022-11-13T07:15:33;15.00;;;10.97;;
6356;SDS011;3211;53.452;-2.264;2022-11-13T07:18:01;14.70;;;11.00;;
6356;SDS011;3211;53.452;-2.264;2022-11-13T07:20:29;16.80;;;12.30;;
6356;SDS011;3211;53.452;-2.264;2022-11-13T07:22:56;19.70;;;12.50;;
6356;SDS011;3211;53.452;-2.264;2022-11-13T07:25:24;16.73;;;11.53;;
6356;SDS011;3211;53.452;-2.264;2022-11-13T07:27:51;15.87;;;10.90;;
6356;SDS011;3211;53.452;-2.264;2022-11-13T07:30:18;15.60;;;11.13;;
6356;SDS011;3211;53.452;-2.264;2022-11-13T07:32:47;15.60;;;10.67;;
6356;SDS011;3211;53.452;-2.264;2022-11-13T07:35:14;15.47;;;11.47;;
6356;SDS011;3211;53.452;-2.264;2022-11-13T07:37:42;17.93;;;12.43;;
6356;SDS011;3211;53.452;-2.264;2022-11-13T07:40:10;14.90;;;11.20;;
6356;SDS011;3211;53.452;-2.264;2022-11-13T07:42:37;17.37;;;11.77;;
6356;SDS011;3211;53.452;-2.264;2022-11-13T07:45:05;15.90;;;11.53;;
6356;SDS011;3211;53.452;-2.264;2022-11-13T07:47:32;16.20;;;11.40;;
6356;SDS011;3211;53.452;-2.264;2022-11-13T07:50:00;15.37;;;11.77;;
6356;SDS011;3211;53.452;-2.264;2022-11-13T07:52:28;14.90;;;10.40;;
6356;SDS011;3211;53.452;-2.264;2022-11-13T07:54:55;13.77;;;11.03;;
6356;SDS011;3211;53.452;-2.264;2022-11-13T07:57:22;16.40;;;11.50;;
6356;SDS011;3211;53.452;-2.264;2022-11-13T07:59:49;13.77;;;10.80;;
6356;SDS011;3211;53.452;-2.264;2022-11-13T08:02:16;15.80;;;12.70;;
6356;SDS011;3211;53.452;-2.264;2022-11-13T08:04:43;15.23;;;10.27;;
6356;SDS011;3211;53.452;-2.264;2022-11-13T08:07:11;18.10;;;11.53;;
6356;SDS011;3211;53.452;-2.264;2022-11-13T08:09:38;20.93;;;11.27;;
6356;SDS011;3211;53.452;-2.264;2022-11-13T08:12:05;15.17;;;10.87;;
6356;SDS011;3211;53.452;-2.264;2022-11-13T08:14:33;17.37;;;12.50;;
6356;SDS011;3211;53.452;-2.264;2022-11-13T08:17:00;16.87;;;12.30;;
6356;SDS011;3211;53.452;-2.264;2022-11-13T08:19:44;16.53;;;13.07;;
6356;SDS011;3211;53.452;-2.264;2022-11-13T08:22:13;17.20;;;12.30;;
6356;SDS011;3211;53.452;-2.264;2022-11-13T08:24:40;19.50;;;12.37;;
6356;SDS011;3211;53.452;-2.264;2022-11-13T08:27:07;16.47;;;12.20;;
6356;SDS011;3211;53.452;-2.264;2022-11-13T08:29:34;17.20;;;12.33;;
6356;SDS011;3211;53.452;-2.264;2022-11-13T08:32:02;14.70;;;11.53;;
6356;SDS011;3211;53.452;-2.264;2022-11-13T08:34:29;15.70;;;12.20;;
6356;SDS011;3211;53.452;-2.264;2022-11-13T08:36:56;16.63;;;10.93;;
6356;SDS011;3211;53.452;-2.264;2022-11-13T08:39:25;18.90;;;11.57;;
6356;SDS011;3211;53.452;-2.264;2022-11-13T08:41:52;18.57;;;13.30;;
6356;SDS011;3211;53.452;-2.264;2022-11-13T08:44:21;17.20;;;11.80;;
6356;SDS011;3211;53.452;-2.264;2022-11-13T08:46:48;16.60;;;12.53;;
6356;SDS011;3211;53.452;-2.264;2022-11-13T08:49:15;19.60;;;12.27;;
6356;SDS011;3211;53.452;-2.264;2022-11-13T08:51:42;19.40;;;12.73;;
6356;SDS011;3211;53.452;-2.264;2022-11-13T08:54:09;15.87;;;11.87;;
6356;SDS011;3211;53.452;-2.264;2022-11-13T08:56:38;14.00;;;11.60;;
6356;SDS011;3211;53.452;-2.264;2022-11-13T08:59:09;17.33;;;11.87;;
6356;SDS011;3211;53.452;-2.264;2022-11-13T09:01:36;22.27;;;11.63;;
6356;SDS011;3211;53.452;-2.264;2022-11-13T09:04:03;17.50;;;12.97;;
6356;SDS011;3211;53.452;-2.264;2022-11-13T09:06:31;20.23;;;13.70;;
6356;SDS011;3211;53.452;-2.264;2022-11-13T09:09:03;20.47;;;14.50;;
6356;SDS011;3211;53.452;-2.264;2022-11-13T09:11:30;19.37;;;14.40;;
6356;SDS011;3211;53.452;-2.264;2022-11-13T09:13:59;20.80;;;14.10;;
6356;SDS011;3211;53.452;-2.264;2022-11-13T09:16:26;23.23;;;15.30;;
6356;SDS011;3211;53.452;-2.264;2022-11-13T09:18:53;19.83;;;13.90;;
6356;SDS011;3211;53.452;-2.264;2022-11-13T09:21:20;19.93;;;13.90;;
6356;SDS011;3211;53.452;-2.264;2022-11-13T09:23:47;16.93;;;13.70;;
6356;SDS011;3211;53.452;-2.264;2022-11-13T09:26:14;19.70;;;13.87;;
6356;SDS011;3211;53.452;-2.264;2022-11-13T09:28:41;17.57;;;13.77;;
6356;SDS011;3211;53.452;-2.264;2022-11-13T09:31:10;26.00;;;15.10;;
6356;SDS011;3211;53.452;-2.264;2022-11-13T09:33:37;20.07;;;14.00;;
6356;SDS011;3211;53.452;-2.264;2022-11-13T09:36:11;17.03;;;12.53;;
6356;SDS011;3211;53.452;-2.264;2022-11-13T09:38:39;17.87;;;13.30;;
6356;SDS011;3211;53.452;-2.264;2022-11-13T09:41:07;19.00;;;13.70;;
6356;SDS011;3211;53.452;-2.264;2022-11-13T09:43:37;15.37;;;12.43;;
6356;SDS011;3211;53.452;-2.264;2022-11-13T09:46:09;15.47;;;11.23;;
6356;SDS011;3211;53.452;-2.264;2022-11-13T09:48:43;14.90;;;11.00;;
6356;SDS011;3211;53.452;-2.264;2022-11-13T09:51:17;17.00;;;11.40;;
6356;SDS011;3211;53.452;-2.264;2022-11-13T09:53:47;16.50;;;10.97;;
6356;SDS011;3211;53.452;-2.264;2022-11-13T09:56:18;12.80;;;10.33;;
6356;SDS011;3211;53.452;-2.264;2022-11-13T09:58:55;14.33;;;10.70;;
6356;SDS011;3211;53.452;-2.264;2022-11-13T10:01:30;16.30;;;9.90;;
6356;SDS011;3211;53.452;-2.264;2022-11-13T10:04:06;12.33;;;9.37;;
6356;SDS011;3211;53.452;-2.264;2022-11-13T10:06:44;11.57;;;8.80;;
6356;SDS011;3211;53.452;-2.264;2022-11-13T10:09:22;9.73;;;8.73;;
6356;SDS011;3211;53.452;-2.264;2022-11-13T10:11:55;10.37;;;8.40;;
6356;SDS011;3211;53.452;-2.264;2022-11-13T10:14:29;13.07;;;9.30;;
6356;SDS011;3211;53.452;-2.264;2022-11-13T10:17:02;10.53;;;8.17;;
6356;SDS011;3211;53.452;-2.264;2022-11-13T10:19:35;9.60;;;7.67;;
6356;SDS011;3211;53.452;-2.264;2022-11-13T10:22:09;9.20;;;7.73;;
6356;SDS011;3211;53.452;-2.264;2022-11-13T10:24:40;8.90;;;7.20;;
6356;SDS011;3211;53.452;-2.264;2022-11-13T10:27:09;11.00;;;6.93;;
6356;SDS011;3211;53.452;-2.264;2022-11-13T10:29:37;9.53;;;7.10;;
6356;SDS011;3211;53.452;-2.264;2022-11-13T10:32:16;8.30;;;5.87;;
6356;SDS011;3211;53.452;-2.264;2022-11-13T10:34:47;9.43;;;6.20;;
6356;SDS011;3211;53.452;-2.264;2022-11-13T10:37:28;7.27;;;5.80;;
6356;SDS011;3211;53.452;-2.264;2022-11-13T10:40:05;6.67;;;5.70;;
6356;SDS011;3211;53.452;-2.264;2022-11-13T10:42:35;7.47;;;6.00;;
6356;SDS011;3211;53.452;-2.264;2022-11-13T10:45:11;9.37;;;5.60;;
6356;SDS011;3211;53.452;-2.264;2022-11-13T10:47:46;6.23;;;5.60;;
6356;SDS011;3211;53.452;-2.264;2022-11-13T10:50:18;5.80;;;5.20;;
6356;SDS011;3211;53.452;-2.264;2022-11-13T10:52:47;5.27;;;4.73;;
6356;SDS011;3211;53.452;-2.264;2022-11-13T10:55:16;7.10;;;5.57;;
6356;SDS011;3211;53.452;-2.264;2022-11-13T10:57:54;6.07;;;4.87;;
6356;SDS011;3211;53.452;-2.264;2022-11-13T11:00:23;7.37;;;5.30;;
6356;SDS011;3211;53.452;-2.264;2022-11-13T11:02:54;7.97;;;5.90;;
6356;SDS011;3211;53.452;-2.264;2022-11-13T11:05:21;9.37;;;5.53;;
6356;SDS011;3211;53.452;-2.264;2022-11-13T11:07:50;7.33;;;5.80;;
6356;SDS011;3211;53.452;-2.264;2022-11-13T11:10:19;8.40;;;5.40;;
6356;SDS011;3211;53.452;-2.264;2022-11-13T11:12:51;6.63;;;5.47;;
6356;SDS011;3211;53.452;-2.264;2022-11-13T11:15:20;7.43;;;5.50;;
6356;SDS011;3211;53.452;-2.264;2022-11-13T11:17:51;7.90;;;5.63;;
6356;SDS011;3211;53.452;-2.264;2022-11-13T11:20:27;8.20;;;5.00;;
6356;SDS011;3211;53.452;-2.264;2022-11-13T11:23:03;6.23;;;5.40;;
6356;SDS011;3211;53.452;-2.264;2022-11-13T11:25:39;8.00;;;4.77;;
6356;SDS011;3211;53.452;-2.264;2022-11-13T11:28:12;7.47;;;5.60;;
6356;SDS011;3211;53.452;-2.264;2022-11-13T11:30:46;8.07;;;5.30;;
6356;SDS011;3211;53.452;-2.264;2022-11-13T11:33:18;5.70;;;5.10;;
6356;SDS011;3211;53.452;-2.264;2022-11-13T11:35:52;6.00;;;5.40;;
6356;SDS011;3211;53.452;-2.264;2022-11-13T11:38:25;6.70;;;4.87;;
6356;SDS011;3211;53.452;-2.264;2022-11-13T11:41:01;7.20;;;5.60;;
6356;SDS011;3211;53.452;-2.264;2022-11-13T11:43:36;4.93;;;4.37;;
6356;SDS011;3211;53.452;-2.264;2022-11-13T11:46:08;5.80;;;4.70;;
6356;SDS011;3211;53.452;-2.264;2022-11-13T11:48:38;6.47;;;5.10;;
6356;SDS011;3211;53.452;-2.264;2022-11-13T11:51:07;6.93;;;4.70;;
6356;SDS011;3211;53.452;-2.264;2022-11-13T11:53:45;7.03;;;4.57;;
6356;SDS011;3211;53.452;-2.264;2022-11-13T11:56:22;5.70;;;4.37;;
6356;SDS011;3211;53.452;-2.264;2022-11-13T12:02:01;6.07;;;4.10;;
6356;SDS011;3211;53.452;-2.264;2022-11-13T12:04:55;6.40;;;4.80;;
6356;SDS011;3211;53.452;-2.264;2022-11-13T12:07:38;5.93;;;4.23;;
6356;SDS011;3211;53.452;-2.264;2022-11-13T12:10:17;4.73;;;3.67;;
6356;SDS011;3211;53.452;-2.264;2022-11-13T12:12:55;5.80;;;4.30;;
6356;SDS011;3211;53.452;-2.264;2022-11-13T12:15:33;5.03;;;3.83;;
6356;SDS011;3211;53.452;-2.264;2022-11-13T12:18:09;4.83;;;3.50;;
6356;SDS011;3211;53.452;-2.264;2022-11-13T12:20:43;4.63;;;3.67;;
6356;SDS011;3211;53.452;-2.264;2022-11-13T12:26:13;4.90;;;3.67;;
6356;SDS011;3211;53.452;-2.264;2022-11-13T12:28:47;5.30;;;3.53;;
6356;SDS011;3211;53.452;-2.264;2022-11-13T12:31:31;6.57;;;4.03;;
6356;SDS011;3211;53.452;-2.264;2022-11-13T12:34:10;8.43;;;3.80;;
6356;SDS011;3211;53.452;-2.264;2022-11-13T12:36:44;6.10;;;4.20;;
6356;SDS011;3211;53.452;-2.264;2022-11-13T12:39:19;4.67;;;4.20;;
6356;SDS011;3211;53.452;-2.264;2022-11-13T12:42:02;9.33;;;4.23;;
6356;SDS011;3211;53.452;-2.264;2022-11-13T12:44:38;7.57;;;4.73;;
6356;SDS011;3211;53.452;-2.264;2022-11-13T12:47:14;4.83;;;4.10;;
6356;SDS011;3211;53.452;-2.264;2022-11-13T12:49:42;6.80;;;4.03;;
6356;SDS011;3211;53.452;-2.264;2022-11-13T12:52:17;5.50;;;4.03;;
6356;SDS011;3211;53.452;-2.264;2022-11-13T12:54:46;5.27;;;4.77;;
6356;SDS011;3211;53.452;-2.264;2022-11-13T12:57:18;6.53;;;4.80;;
6356;SDS011;3211;53.452;-2.264;2022-11-13T12:59:48;6.03;;;4.53;;
6356;SDS011;3211;53.452;-2.264;2022-11-13T13:02:32;9.10;;;4.27;;
6356;SDS011;3211;53.452;-2.264;2022-11-13T13:05:17;9.57;;;4.60;;
6356;SDS011;3211;53.452;-2.264;2022-11-13T13:08:03;6.33;;;4.83;;
6356;SDS011;3211;53.452;-2.264;2022-11-13T13:10:55;9.00;;;4.30;;
6356;SDS011;3211;53.452;-2.264;2022-11-13T13:13:33;4.90;;;3.90;;
6356;SDS011;3211;53.452;-2.264;2022-11-13T13:16:08;7.83;;;4.83;;
6356;SDS011;3211;53.452;-2.264;2022-11-13T13:18:36;5.93;;;4.47;;
6356;SDS011;3211;53.452;-2.264;2022-11-13T13:21:05;7.40;;;4.40;;
6356;SDS011;3211;53.452;-2.264;2022-11-13T13:23:36;5.30;;;3.90;;
6356;SDS011;3211;53.452;-2.264;2022-11-13T13:26:05;7.17;;;4.60;;
6356;SDS011;3211;53.452;-2.264;2022-11-13T13:28:42;6.47;;;4.40;;
6356;SDS011;3211;53.452;-2.264;2022-11-13T13:31:18;6.20;;;4.60;;
6356;SDS011;3211;53.452;-2.264;2022-11-13T13:33:57;7.37;;;4.67;;
6356;SDS011;3211;53.452;-2.264;2022-11-13T13:36:35;7.43;;;5.17;;
6356;SDS011;3211;53.452;-2.264;2022-11-13T13:39:14;9.13;;;5.10;;
6356;SDS011;3211;53.452;-2.264;2022-11-13T13:41:53;6.90;;;5.00;;
6356;SDS011;3211;53.452;-2.264;2022-11-13T13:47:22;10.47;;;5.30;;
6356;SDS011;3211;53.452;-2.264;2022-11-13T13:49:52;6.30;;;4.73;;
6356;SDS011;3211;53.452;-2.264;2022-11-13T13:52:21;7.70;;;4.60;;
6356;SDS011;3211;53.452;-2.264;2022-11-13T13:54:54;5.97;;;4.80;;
6356;SDS011;3211;53.452;-2.264;2022-11-13T13:57:22;7.87;;;5.00;;
6356;SDS011;3211;53.452;-2.264;2022-11-13T13:59:49;7.00;;;5.17;;
6356;SDS011;3211;53.452;-2.264;2022-11-13T14:02:17;8.37;;;5.17;;
6356;SDS011;3211;53.452;-2.264;2022-11-13T14:04:47;7.70;;;5.13;;
6356;SDS011;3211;53.452;-2.264;2022-11-13T14:07:22;6.10;;;4.87;;
6356;SDS011;3211;53.452;-2.264;2022-11-13T14:10:07;5.17;;;4.20;;
6356;SDS011;3211;53.452;-2.264;2022-11-13T14:12:41;6.07;;;4.47;;
6356;SDS011;3211;53.452;-2.264;2022-11-13T14:18:04;6.60;;;5.13;;
6356;SDS011;3211;53.452;-2.264;2022-11-13T14:20:37;5.77;;;4.70;;
6356;SDS011;3211;53.452;-2.264;2022-11-13T14:23:08;7.40;;;5.47;;
6356;SDS011;3211;53.452;-2.264;2022-11-13T14:25:40;6.33;;;5.33;;
6356;SDS011;3211;53.452;-2.264;2022-11-13T14:28:15;5.60;;;4.73;;
6356;SDS011;3211;53.452;-2.264;2022-11-13T14:30:51;6.00;;;4.83;;
6356;SDS011;3211;53.452;-2.264;2022-11-13T14:33:21;8.50;;;5.00;;
6356;SDS011;3211;53.452;-2.264;2022-11-13T14:35:50;8.50;;;5.67;;
6356;SDS011;3211;53.452;-2.264;2022-11-13T14:38:21;7.67;;;5.63;;
6356;SDS011;3211;53.452;-2.264;2022-11-13T14:40:52;7.63;;;5.60;;
6356;SDS011;3211;53.452;-2.264;2022-11-13T14:43:21;7.03;;;5.17;;
6356;SDS011;3211;53.452;-2.264;2022-11-13T14:45:54;7.37;;;5.17;;
6356;SDS011;3211;53.452;-2.264;2022-11-13T14:48:23;7.43;;;5.10;;
6356;SDS011;3211;53.452;-2.264;2022-11-13T14:50:52;9.50;;;5.63;;
6356;SDS011;3211;53.452;-2.264;2022-11-13T14:53:28;7.90;;;5.77;;
6356;SDS011;3211;53.452;-2.264;2022-11-13T14:55:59;7.13;;;5.70;;
6356;SDS011;3211;53.452;-2.264;2022-11-13T14:58:30;7.20;;;5.50;;
6356;SDS011;3211;53.452;-2.264;2022-11-13T15:01:10;7.20;;;6.07;;
6356;SDS011;3211;53.452;-2.264;2022-11-13T15:03:40;6.80;;;5.30;;
6356;SDS011;3211;53.452;-2.264;2022-11-13T15:06:08;6.47;;;5.30;;
6356;SDS011;3211;53.452;-2.264;2022-11-13T15:08:39;17.47;;;5.80;;
6356;SDS011;3211;53.452;-2.264;2022-11-13T15:11:08;7.70;;;6.07;;
6356;SDS011;3211;53.452;-2.264;2022-11-13T15:13:38;10.47;;;6.13;;